sensor_id;sensor_type;location;lat;lon;timestamp;temperature;humidity
57829;DHT22;43657;52.698;6.314;2023-07-29T00:01:13;16.10;99.90
57829;DHT22;43657;52.698;6.314;2023-07-29T00:03:39;16.10;99.90
57829;DHT22;43657;52.698;6.314;2023-07-29T00:06:12;16.10;99.90
57829;DHT22;43657;52.698;6.314;2023-07-29T00:08:51;16.10;99.90
57829;DHT22;43657;52.698;6.314;2023-07-29T00:11:17;16.10;99.90
57829;DHT22;43657;52.698;6.314;2023-07-29T00:13:50;16.10;99.90
57829;DHT22;43657;52.698;6.314;2023-07-29T00:16:19;16.20;99.90
57829;DHT22;43657;52.698;6.314;2023-07-29T00:18:50;16.10;99.90
57829;DHT22;43657;52.698;6.314;2023-07-29T00:21:22;16.00;99.90
57829;DHT22;43657;52.698;6.314;2023-07-29T00:23:48;16.10;99.90
57829;DHT22;43657;52.698;6.314;2023-07-29T00:26:15;16.00;99.90
57829;DHT22;43657;52.698;6.314;2023-07-29T00:28:47;15.90;99.90
57829;DHT22;43657;52.698;6.314;2023-07-29T00:31:16;16.00;99.90
57829;DHT22;43657;52.698;6.314;2023-07-29T00:33:51;16.00;99.90
57829;DHT22;43657;52.698;6.314;2023-07-29T00:36:21;16.00;99.90
57829;DHT22;43657;52.698;6.314;2023-07-29T00:38:53;15.90;99.90
57829;DHT22;43657;52.698;6.314;2023-07-29T00:41:26;15.90;99.90
57829;DHT22;43657;52.698;6.314;2023-07-29T00:44:06;15.90;99.90
57829;DHT22;43657;52.698;6.314;2023-07-29T00:46:34;15.90;99.90
57829;DHT22;43657;52.698;6.314;2023-07-29T00:49:04;15.90;99.90
57829;DHT22;43657;52.698;6.314;2023-07-29T00:51:32;15.80;99.90
57829;DHT22;43657;52.698;6.314;2023-07-29T00:53:58;15.90;99.90
57829;DHT22;43657;52.698;6.314;2023-07-29T00:56:31;15.80;99.90
57829;DHT22;43657;52.698;6.314;2023-07-29T00:58:57;15.80;99.90
57829;DHT22;43657;52.698;6.314;2023-07-29T01:01:27;15.80;99.90
57829;DHT22;43657;52.698;6.314;2023-07-29T01:03:54;15.80;99.90
57829;DHT22;43657;52.698;6.314;2023-07-29T01:08:58;15.70;99.90
57829;DHT22;43657;52.698;6.314;2023-07-29T01:16:46;15.70;99.90
57829;DHT22;43657;52.698;6.314;2023-07-29T01:19:55;15.60;99.90
57829;DHT22;43657;52.698;6.314;2023-07-29T01:22:39;15.60;99.90
57829;DHT22;43657;52.698;6.314;2023-07-29T01:25:09;15.60;99.90
57829;DHT22;43657;52.698;6.314;2023-07-29T01:27:37;15.60;99.90
57829;DHT22;43657;52.698;6.314;2023-07-29T01:30:08;15.60;99.90
57829;DHT22;43657;52.698;6.314;2023-07-29T01:33:11;15.50;99.90
57829;DHT22;43657;52.698;6.314;2023-07-29T01:35:52;15.50;99.90
57829;DHT22;43657;52.698;6.314;2023-07-29T01:38:35;15.40;99.90
57829;DHT22;43657;52.698;6.314;2023-07-29T01:41:09;15.40;99.90
57829;DHT22;43657;52.698;6.314;2023-07-29T01:43:37;15.30;99.90
57829;DHT22;43657;52.698;6.314;2023-07-29T01:46:15;15.30;99.90
57829;DHT22;43657;52.698;6.314;2023-07-29T01:48:45;15.30;99.90
57829;DHT22;43657;52.698;6.314;2023-07-29T01:51:14;15.30;99.90
57829;DHT22;43657;52.698;6.314;2023-07-29T01:53:42;15.30;99.90
57829;DHT22;43657;52.698;6.314;2023-07-29T01:56:08;15.30;99.90
57829;DHT22;43657;52.698;6.314;2023-07-29T01:58:36;15.40;99.90
57829;DHT22;43657;52.698;6.314;2023-07-29T02:01:21;15.40;99.90
57829;DHT22;43657;52.698;6.314;2023-07-29T02:03:50;15.50;99.90
57829;DHT22;43657;52.698;6.314;2023-07-29T02:06:21;15.50;99.90
57829;DHT22;43657;52.698;6.314;2023-07-29T02:09:02;15.60;99.90
57829;DHT22;43657;52.698;6.314;2023-07-29T02:11:30;15.50;99.90
57829;DHT22;43657;52.698;6.314;2023-07-29T02:13:59;15.60;99.90
57829;DHT22;43657;52.698;6.314;2023-07-29T02:16:26;15.60;99.90
57829;DHT22;43657;52.698;6.314;2023-07-29T02:18:55;15.70;99.90
57829;DHT22;43657;52.698;6.314;2023-07-29T02:21:24;15.70;99.90
57829;DHT22;43657;52.698;6.314;2023-07-29T02:23:53;15.70;99.90
57829;DHT22;43657;52.698;6.314;2023-07-29T02:26:22;15.70;99.90
57829;DHT22;43657;52.698;6.314;2023-07-29T02:28:48;15.70;99.90
57829;DHT22;43657;52.698;6.314;2023-07-29T02:31:22;15.80;99.90
57829;DHT22;43657;52.698;6.314;2023-07-29T02:33:55;15.80;99.90
57829;DHT22;43657;52.698;6.314;2023-07-29T02:36:27;15.80;99.90
57829;DHT22;43657;52.698;6.314;2023-07-29T02:38:56;15.80;99.90
57829;DHT22;43657;52.698;6.314;2023-07-29T02:41:27;15.80;99.90
57829;DHT22;43657;52.698;6.314;2023-07-29T02:43:53;15.80;99.90
57829;DHT22;43657;52.698;6.314;2023-07-29T02:46:24;15.80;99.90
57829;DHT22;43657;52.698;6.314;2023-07-29T02:48:53;15.80;99.90
57829;DHT22;43657;52.698;6.314;2023-07-29T02:51:22;15.70;99.90
57829;DHT22;43657;52.698;6.314;2023-07-29T02:53:51;15.70;99.90
57829;DHT22;43657;52.698;6.314;2023-07-29T02:56:20;15.70;99.90
57829;DHT22;43657;52.698;6.314;2023-07-29T02:58:49;15.70;99.90
57829;DHT22;43657;52.698;6.314;2023-07-29T03:01:19;15.60;99.90
57829;DHT22;43657;52.698;6.314;2023-07-29T03:03:47;15.60;99.90
57829;DHT22;43657;52.698;6.314;2023-07-29T03:06:16;15.60;99.90
57829;DHT22;43657;52.698;6.314;2023-07-29T03:08:45;15.60;99.90
57829;DHT22;43657;52.698;6.314;2023-07-29T03:11:15;15.60;99.90
57829;DHT22;43657;52.698;6.314;2023-07-29T03:13:41;15.60;99.90
57829;DHT22;43657;52.698;6.314;2023-07-29T03:16:14;15.60;99.90
57829;DHT22;43657;52.698;6.314;2023-07-29T03:18:41;15.50;99.90
57829;DHT22;43657;52.698;6.314;2023-07-29T03:21:16;15.50;99.90
57829;DHT22;43657;52.698;6.314;2023-07-29T03:23:41;15.50;99.90
57829;DHT22;43657;52.698;6.314;2023-07-29T03:26:07;15.50;99.90
57829;DHT22;43657;52.698;6.314;2023-07-29T03:28:43;15.50;99.90
57829;DHT22;43657;52.698;6.314;2023-07-29T03:31:10;15.50;99.90
57829;DHT22;43657;52.698;6.314;2023-07-29T03:33:39;15.40;99.90
57829;DHT22;43657;52.698;6.314;2023-07-29T03:36:05;15.40;99.90
57829;DHT22;43657;52.698;6.314;2023-07-29T03:38:33;15.40;99.90
57829;DHT22;43657;52.698;6.314;2023-07-29T03:41:00;15.40;99.90
57829;DHT22;43657;52.698;6.314;2023-07-29T03:43:28;15.40;99.90
57829;DHT22;43657;52.698;6.314;2023-07-29T03:46:00;15.40;99.90
57829;DHT22;43657;52.698;6.314;2023-07-29T03:48:31;15.40;99.90
57829;DHT22;43657;52.698;6.314;2023-07-29T03:51:00;15.30;99.90
57829;DHT22;43657;52.698;6.314;2023-07-29T03:53:29;15.40;99.90
57829;DHT22;43657;52.698;6.314;2023-07-29T03:55:57;15.30;99.90
57829;DHT22;43657;52.698;6.314;2023-07-29T03:58:25;15.30;99.90
57829;DHT22;43657;52.698;6.314;2023-07-29T04:00:51;15.40;99.90
57829;DHT22;43657;52.698;6.314;2023-07-29T04:03:23;15.30;99.90
57829;DHT22;43657;52.698;6.314;2023-07-29T04:05:49;15.30;99.90
57829;DHT22;43657;52.698;6.314;2023-07-29T04:08:15;15.30;99.90
57829;DHT22;43657;52.698;6.314;2023-07-29T04:10:43;15.30;99.90
57829;DHT22;43657;52.698;6.314;2023-07-29T04:13:10;15.30;99.90
57829;DHT22;43657;52.698;6.314;2023-07-29T04:15:38;15.30;99.90
57829;DHT22;43657;52.698;6.314;2023-07-29T04:18:15;15.30;99.90
57829;DHT22;43657;52.698;6.314;2023-07-29T04:20:41;15.40;99.90
57829;DHT22;43657;52.698;6.314;2023-07-29T04:23:06;15.40;99.90
57829;DHT22;43657;52.698;6.314;2023-07-29T04:25:38;15.30;99.90
57829;DHT22;43657;52.698;6.314;2023-07-29T04:28:06;15.40;99.90
57829;DHT22;43657;52.698;6.314;2023-07-29T04:30:32;15.40;99.90
57829;DHT22;43657;52.698;6.314;2023-07-29T04:32:57;15.40;99.90
57829;DHT22;43657;52.698;6.314;2023-07-29T04:35:26;15.40;99.90
57829;DHT22;43657;52.698;6.314;2023-07-29T04:37:52;15.40;99.90
57829;DHT22;43657;52.698;6.314;2023-07-29T04:40:23;15.40;99.90
57829;DHT22;43657;52.698;6.314;2023-07-29T04:42:50;15.40;99.90
57829;DHT22;43657;52.698;6.314;2023-07-29T04:45:16;15.50;99.90
57829;DHT22;43657;52.698;6.314;2023-07-29T04:47:44;15.50;99.90
57829;DHT22;43657;52.698;6.314;2023-07-29T04:50:13;15.40;99.90
57829;DHT22;43657;52.698;6.314;2023-07-29T04:52:39;15.50;99.90
57829;DHT22;43657;52.698;6.314;2023-07-29T04:55:05;15.50;99.90
57829;DHT22;43657;52.698;6.314;2023-07-29T04:57:31;15.50;99.90
57829;DHT22;43657;52.698;6.314;2023-07-29T04:59:57;15.50;99.90
57829;DHT22;43657;52.698;6.314;2023-07-29T05:02:25;15.50;99.90
57829;DHT22;43657;52.698;6.314;2023-07-29T05:04:51;15.60;99.90
57829;DHT22;43657;52.698;6.314;2023-07-29T05:07:17;15.60;99.90
57829;DHT22;43657;52.698;6.314;2023-07-29T05:09:43;15.70;99.90
57829;DHT22;43657;52.698;6.314;2023-07-29T05:12:12;15.70;99.90
57829;DHT22;43657;52.698;6.314;2023-07-29T05:14:37;15.70;99.90
57829;DHT22;43657;52.698;6.314;2023-07-29T05:17:03;15.80;99.90
57829;DHT22;43657;52.698;6.314;2023-07-29T05:19:29;15.90;99.90
57829;DHT22;43657;52.698;6.314;2023-07-29T05:21:58;15.90;99.90
57829;DHT22;43657;52.698;6.314;2023-07-29T05:24:24;15.90;99.90
57829;DHT22;43657;52.698;6.314;2023-07-29T05:26:50;16.00;99.90
57829;DHT22;43657;52.698;6.314;2023-07-29T05:29:15;16.10;99.90
57829;DHT22;43657;52.698;6.314;2023-07-29T05:31:41;16.10;99.90
57829;DHT22;43657;52.698;6.314;2023-07-29T05:34:06;16.20;99.90
57829;DHT22;43657;52.698;6.314;2023-07-29T05:36:32;16.10;99.90
57829;DHT22;43657;52.698;6.314;2023-07-29T05:38:58;16.20;99.90
57829;DHT22;43657;52.698;6.314;2023-07-29T05:41:23;16.20;99.90
57829;DHT22;43657;52.698;6.314;2023-07-29T05:43:49;16.30;99.90
57829;DHT22;43657;52.698;6.314;2023-07-29T05:46:15;16.40;99.90
57829;DHT22;43657;52.698;6.314;2023-07-29T05:48:40;16.40;99.90
57829;DHT22;43657;52.698;6.314;2023-07-29T05:51:06;16.50;99.90
57829;DHT22;43657;52.698;6.314;2023-07-29T05:53:32;16.50;99.90
57829;DHT22;43657;52.698;6.314;2023-07-29T05:55:57;16.50;99.90
57829;DHT22;43657;52.698;6.314;2023-07-29T05:58:23;16.50;99.90
57829;DHT22;43657;52.698;6.314;2023-07-29T06:00:48;16.60;99.90
57829;DHT22;43657;52.698;6.314;2023-07-29T06:03:14;16.60;99.90
57829;DHT22;43657;52.698;6.314;2023-07-29T06:05:40;16.60;99.90
57829;DHT22;43657;52.698;6.314;2023-07-29T06:08:05;16.70;99.90
57829;DHT22;43657;52.698;6.314;2023-07-29T06:10:31;16.80;99.90
57829;DHT22;43657;52.698;6.314;2023-07-29T06:12:56;17.00;99.90
57829;DHT22;43657;52.698;6.314;2023-07-29T06:15:22;17.20;99.90
57829;DHT22;43657;52.698;6.314;2023-07-29T06:17:48;17.30;99.90
57829;DHT22;43657;52.698;6.314;2023-07-29T06:20:14;17.40;99.90
57829;DHT22;43657;52.698;6.314;2023-07-29T06:22:41;17.50;99.90
57829;DHT22;43657;52.698;6.314;2023-07-29T06:25:07;17.50;99.90
57829;DHT22;43657;52.698;6.314;2023-07-29T06:27:33;17.50;99.90
57829;DHT22;43657;52.698;6.314;2023-07-29T06:29:59;17.70;99.90
57829;DHT22;43657;52.698;6.314;2023-07-29T06:32:24;17.70;99.90
57829;DHT22;43657;52.698;6.314;2023-07-29T06:34:50;17.70;99.90
57829;DHT22;43657;52.698;6.314;2023-07-29T06:37:17;17.80;99.90
57829;DHT22;43657;52.698;6.314;2023-07-29T06:39:42;17.90;99.90
57829;DHT22;43657;52.698;6.314;2023-07-29T06:42:08;17.90;99.90
57829;DHT22;43657;52.698;6.314;2023-07-29T06:44:34;17.90;99.90
57829;DHT22;43657;52.698;6.314;2023-07-29T06:46:59;18.00;99.90
57829;DHT22;43657;52.698;6.314;2023-07-29T06:49:25;18.00;99.90
57829;DHT22;43657;52.698;6.314;2023-07-29T06:51:50;18.00;99.90
57829;DHT22;43657;52.698;6.314;2023-07-29T06:54:16;18.00;99.90
57829;DHT22;43657;52.698;6.314;2023-07-29T06:56:42;18.00;99.90
57829;DHT22;43657;52.698;6.314;2023-07-29T06:59:08;18.00;99.90
57829;DHT22;43657;52.698;6.314;2023-07-29T07:01:34;18.10;99.90
57829;DHT22;43657;52.698;6.314;2023-07-29T07:03:59;18.10;99.90
57829;DHT22;43657;52.698;6.314;2023-07-29T07:06:25;18.20;99.90
57829;DHT22;43657;52.698;6.314;2023-07-29T07:08:51;18.30;99.90
57829;DHT22;43657;52.698;6.314;2023-07-29T07:11:18;18.40;99.90
57829;DHT22;43657;52.698;6.314;2023-07-29T07:13:44;18.60;99.90
57829;DHT22;43657;52.698;6.314;2023-07-29T07:16:10;18.80;99.90
57829;DHT22;43657;52.698;6.314;2023-07-29T07:18:35;19.10;99.90
57829;DHT22;43657;52.698;6.314;2023-07-29T07:21:01;19.20;99.90
57829;DHT22;43657;52.698;6.314;2023-07-29T07:23:26;19.30;99.90
57829;DHT22;43657;52.698;6.314;2023-07-29T07:25:52;19.30;99.90
57829;DHT22;43657;52.698;6.314;2023-07-29T07:28:17;19.30;99.90
57829;DHT22;43657;52.698;6.314;2023-07-29T07:30:43;19.30;99.90
57829;DHT22;43657;52.698;6.314;2023-07-29T07:33:09;19.30;99.90
57829;DHT22;43657;52.698;6.314;2023-07-29T07:35:35;19.40;99.90
57829;DHT22;43657;52.698;6.314;2023-07-29T07:38:00;19.40;99.90
57829;DHT22;43657;52.698;6.314;2023-07-29T07:40:30;19.40;99.90
57829;DHT22;43657;52.698;6.314;2023-07-29T07:42:56;19.30;99.90
57829;DHT22;43657;52.698;6.314;2023-07-29T07:45:21;19.30;99.90
57829;DHT22;43657;52.698;6.314;2023-07-29T07:47:47;19.40;99.90
57829;DHT22;43657;52.698;6.314;2023-07-29T07:50:13;19.50;99.90
57829;DHT22;43657;52.698;6.314;2023-07-29T07:52:39;19.60;99.90
57829;DHT22;43657;52.698;6.314;2023-07-29T07:55:05;19.70;99.90
57829;DHT22;43657;52.698;6.314;2023-07-29T07:57:31;19.90;99.90
57829;DHT22;43657;52.698;6.314;2023-07-29T07:59:56;20.00;99.90
57829;DHT22;43657;52.698;6.314;2023-07-29T08:02:22;20.20;99.90
57829;DHT22;43657;52.698;6.314;2023-07-29T08:04:48;20.40;99.90
57829;DHT22;43657;52.698;6.314;2023-07-29T08:07:14;20.40;99.90
57829;DHT22;43657;52.698;6.314;2023-07-29T08:09:39;20.40;99.90
57829;DHT22;43657;52.698;6.314;2023-07-29T08:12:05;20.40;99.90
57829;DHT22;43657;52.698;6.314;2023-07-29T08:14:31;20.40;99.90
57829;DHT22;43657;52.698;6.314;2023-07-29T08:16:57;20.30;99.90
57829;DHT22;43657;52.698;6.314;2023-07-29T08:19:23;20.40;99.90
57829;DHT22;43657;52.698;6.314;2023-07-29T08:21:48;20.70;99.90
57829;DHT22;43657;52.698;6.314;2023-07-29T08:24:14;20.90;99.90
57829;DHT22;43657;52.698;6.314;2023-07-29T08:26:40;21.20;99.90
57829;DHT22;43657;52.698;6.314;2023-07-29T08:29:05;21.50;99.90
57829;DHT22;43657;52.698;6.314;2023-07-29T08:31:31;21.60;99.90
57829;DHT22;43657;52.698;6.314;2023-07-29T08:33:59;21.60;99.90
57829;DHT22;43657;52.698;6.314;2023-07-29T08:36:25;21.60;99.90
57829;DHT22;43657;52.698;6.314;2023-07-29T08:38:51;21.80;99.90
57829;DHT22;43657;52.698;6.314;2023-07-29T08:43:56;22.10;99.90
57829;DHT22;43657;52.698;6.314;2023-07-29T08:46:25;22.20;99.90
57829;DHT22;43657;52.698;6.314;2023-07-29T08:48:51;22.60;99.90
57829;DHT22;43657;52.698;6.314;2023-07-29T08:51:17;22.90;99.90
57829;DHT22;43657;52.698;6.314;2023-07-29T08:53:45;23.40;99.90
57829;DHT22;43657;52.698;6.314;2023-07-29T08:56:11;24.10;99.90
57829;DHT22;43657;52.698;6.314;2023-07-29T08:58:37;24.60;99.90
57829;DHT22;43657;52.698;6.314;2023-07-29T09:01:05;24.80;99.90
57829;DHT22;43657;52.698;6.314;2023-07-29T09:03:31;24.80;99.90
57829;DHT22;43657;52.698;6.314;2023-07-29T09:05:58;24.40;99.90
57829;DHT22;43657;52.698;6.314;2023-07-29T09:08:27;23.90;99.90
57829;DHT22;43657;52.698;6.314;2023-07-29T09:10:54;23.50;99.90
57829;DHT22;43657;52.698;6.314;2023-07-29T09:13:21;23.50;99.90
57829;DHT22;43657;52.698;6.314;2023-07-29T09:15:47;23.90;99.90
57829;DHT22;43657;52.698;6.314;2023-07-29T09:18:16;24.00;99.90
57829;DHT22;43657;52.698;6.314;2023-07-29T09:20:42;24.20;99.90
57829;DHT22;43657;52.698;6.314;2023-07-29T09:23:09;24.70;99.90
57829;DHT22;43657;52.698;6.314;2023-07-29T09:25:39;24.90;99.90
57829;DHT22;43657;52.698;6.314;2023-07-29T09:28:10;24.80;99.90
57829;DHT22;43657;52.698;6.314;2023-07-29T09:30:40;24.70;99.90
57829;DHT22;43657;52.698;6.314;2023-07-29T09:33:06;24.40;99.90
57829;DHT22;43657;52.698;6.314;2023-07-29T09:35:33;24.10;99.90
57829;DHT22;43657;52.698;6.314;2023-07-29T09:37:59;23.80;99.90
57829;DHT22;43657;52.698;6.314;2023-07-29T09:40:25;23.60;99.90
57829;DHT22;43657;52.698;6.314;2023-07-29T09:42:55;23.30;99.90
57829;DHT22;43657;52.698;6.314;2023-07-29T09:45:26;23.00;99.90
57829;DHT22;43657;52.698;6.314;2023-07-29T09:47:53;22.70;99.90
57829;DHT22;43657;52.698;6.314;2023-07-29T09:50:22;22.60;99.90
57829;DHT22;43657;52.698;6.314;2023-07-29T09:52:48;22.80;99.90
57829;DHT22;43657;52.698;6.314;2023-07-29T09:55:24;23.00;99.90
57829;DHT22;43657;52.698;6.314;2023-07-29T09:57:54;23.20;99.90
57829;DHT22;43657;52.698;6.314;2023-07-29T10:00:19;23.40;99.90
57829;DHT22;43657;52.698;6.314;2023-07-29T10:02:46;23.60;99.90
57829;DHT22;43657;52.698;6.314;2023-07-29T10:05:11;23.60;99.90
57829;DHT22;43657;52.698;6.314;2023-07-29T10:07:38;23.50;99.90
57829;DHT22;43657;52.698;6.314;2023-07-29T10:10:06;23.40;99.90
57829;DHT22;43657;52.698;6.314;2023-07-29T10:12:32;23.60;99.90
57829;DHT22;43657;52.698;6.314;2023-07-29T10:15:04;24.20;99.90
57829;DHT22;43657;52.698;6.314;2023-07-29T10:17:30;24.70;99.90
57829;DHT22;43657;52.698;6.314;2023-07-29T10:19:59;24.60;99.90
57829;DHT22;43657;52.698;6.314;2023-07-29T10:22:28;24.40;99.90
57829;DHT22;43657;52.698;6.314;2023-07-29T10:25:03;24.50;99.90
57829;DHT22;43657;52.698;6.314;2023-07-29T10:27:39;24.90;99.90
57829;DHT22;43657;52.698;6.314;2023-07-29T10:30:07;25.20;99.90
57829;DHT22;43657;52.698;6.314;2023-07-29T10:32:34;25.20;99.90
57829;DHT22;43657;52.698;6.314;2023-07-29T10:35:00;25.00;99.90
57829;DHT22;43657;52.698;6.314;2023-07-29T10:37:26;24.70;99.90
57829;DHT22;43657;52.698;6.314;2023-07-29T10:39:55;24.20;99.90
57829;DHT22;43657;52.698;6.314;2023-07-29T10:42:22;23.80;99.90
57829;DHT22;43657;52.698;6.314;2023-07-29T10:44:49;23.40;99.90
57829;DHT22;43657;52.698;6.314;2023-07-29T10:47:17;23.20;99.90
57829;DHT22;43657;52.698;6.314;2023-07-29T10:49:43;23.10;99.90
57829;DHT22;43657;52.698;6.314;2023-07-29T10:52:28;23.00;99.90
57829;DHT22;43657;52.698;6.314;2023-07-29T10:54:54;23.00;99.90
57829;DHT22;43657;52.698;6.314;2023-07-29T10:57:38;23.00;99.90
57829;DHT22;43657;52.698;6.314;2023-07-29T11:00:05;23.10;99.90
57829;DHT22;43657;52.698;6.314;2023-07-29T11:02:32;23.30;99.90
57829;DHT22;43657;52.698;6.314;2023-07-29T11:05:00;23.40;99.90
57829;DHT22;43657;52.698;6.314;2023-07-29T11:07:29;23.50;99.90
57829;DHT22;43657;52.698;6.314;2023-07-29T11:10:00;23.50;99.90
57829;DHT22;43657;52.698;6.314;2023-07-29T11:12:45;23.40;99.90
57829;DHT22;43657;52.698;6.314;2023-07-29T11:17:46;23.10;99.90
57829;DHT22;43657;52.698;6.314;2023-07-29T11:20:13;23.50;99.90
57829;DHT22;43657;52.698;6.314;2023-07-29T11:22:40;23.70;99.90
57829;DHT22;43657;52.698;6.314;2023-07-29T11:25:08;23.60;99.90
57829;DHT22;43657;52.698;6.314;2023-07-29T11:27:34;23.40;99.90
57829;DHT22;43657;52.698;6.314;2023-07-29T11:30:03;23.30;99.90
57829;DHT22;43657;52.698;6.314;2023-07-29T11:32:30;23.60;99.90
57829;DHT22;43657;52.698;6.314;2023-07-29T11:34:56;24.10;99.90
57829;DHT22;43657;52.698;6.314;2023-07-29T11:37:22;24.60;99.90
57829;DHT22;43657;52.698;6.314;2023-07-29T11:39:47;25.00;99.90
57829;DHT22;43657;52.698;6.314;2023-07-29T11:42:16;25.60;99.90
57829;DHT22;43657;52.698;6.314;2023-07-29T11:44:42;26.00;99.90
57829;DHT22;43657;52.698;6.314;2023-07-29T11:47:08;25.90;99.90
57829;DHT22;43657;52.698;6.314;2023-07-29T11:49:35;25.70;99.90
57829;DHT22;43657;52.698;6.314;2023-07-29T11:52:06;25.70;99.90
57829;DHT22;43657;52.698;6.314;2023-07-29T11:54:33;26.20;99.90
57829;DHT22;43657;52.698;6.314;2023-07-29T11:56:58;26.60;99.90
57829;DHT22;43657;52.698;6.314;2023-07-29T11:59:24;27.00;99.90
57829;DHT22;43657;52.698;6.314;2023-07-29T12:01:50;27.10;99.90
57829;DHT22;43657;52.698;6.314;2023-07-29T12:04:16;27.10;99.90
57829;DHT22;43657;52.698;6.314;2023-07-29T12:06:42;26.80;99.90
57829;DHT22;43657;52.698;6.314;2023-07-29T12:09:08;26.50;99.90
57829;DHT22;43657;52.698;6.314;2023-07-29T12:11:34;26.20;99.90
57829;DHT22;43657;52.698;6.314;2023-07-29T12:14:00;26.20;99.90
57829;DHT22;43657;52.698;6.314;2023-07-29T12:16:26;26.40;99.90
57829;DHT22;43657;52.698;6.314;2023-07-29T12:18:52;26.70;99.90
57829;DHT22;43657;52.698;6.314;2023-07-29T12:21:19;27.00;99.90
57829;DHT22;43657;52.698;6.314;2023-07-29T12:23:45;27.30;99.90
57829;DHT22;43657;52.698;6.314;2023-07-29T12:26:10;27.40;99.90
57829;DHT22;43657;52.698;6.314;2023-07-29T12:28:36;27.30;99.90
57829;DHT22;43657;52.698;6.314;2023-07-29T12:31:06;27.10;99.90
57829;DHT22;43657;52.698;6.314;2023-07-29T12:33:34;26.70;99.90
57829;DHT22;43657;52.698;6.314;2023-07-29T12:36:01;26.10;99.90
57829;DHT22;43657;52.698;6.314;2023-07-29T12:38:26;25.60;99.90
57829;DHT22;43657;52.698;6.314;2023-07-29T12:40:52;25.20;99.90
57829;DHT22;43657;52.698;6.314;2023-07-29T12:43:18;24.80;99.90
57829;DHT22;43657;52.698;6.314;2023-07-29T12:45:44;24.30;99.90
57829;DHT22;43657;52.698;6.314;2023-07-29T12:48:10;23.70;99.90
57829;DHT22;43657;52.698;6.314;2023-07-29T12:50:37;23.40;99.90
57829;DHT22;43657;52.698;6.314;2023-07-29T12:53:04;23.20;99.90
57829;DHT22;43657;52.698;6.314;2023-07-29T12:55:30;23.40;99.90
57829;DHT22;43657;52.698;6.314;2023-07-29T12:57:56;23.40;99.90
57829;DHT22;43657;52.698;6.314;2023-07-29T13:00:23;23.40;99.90
57829;DHT22;43657;52.698;6.314;2023-07-29T13:02:49;23.40;99.90
57829;DHT22;43657;52.698;6.314;2023-07-29T13:05:14;23.50;99.90
57829;DHT22;43657;52.698;6.314;2023-07-29T13:07:40;23.40;99.90
57829;DHT22;43657;52.698;6.314;2023-07-29T13:10:07;23.10;99.90
57829;DHT22;43657;52.698;6.314;2023-07-29T13:12:33;22.80;99.90
57829;DHT22;43657;52.698;6.314;2023-07-29T13:14:58;22.50;99.90
57829;DHT22;43657;52.698;6.314;2023-07-29T13:17:25;22.20;99.90
57829;DHT22;43657;52.698;6.314;2023-07-29T13:19:50;21.90;99.90
57829;DHT22;43657;52.698;6.314;2023-07-29T13:22:16;21.40;99.90
57829;DHT22;43657;52.698;6.314;2023-07-29T13:24:42;20.70;99.90
57829;DHT22;43657;52.698;6.314;2023-07-29T13:27:08;20.20;99.90
57829;DHT22;43657;52.698;6.314;2023-07-29T13:29:33;19.60;99.90
57829;DHT22;43657;52.698;6.314;2023-07-29T13:31:59;19.10;99.90
57829;DHT22;43657;52.698;6.314;2023-07-29T13:34:24;18.70;99.90
57829;DHT22;43657;52.698;6.314;2023-07-29T13:36:50;18.50;99.90
57829;DHT22;43657;52.698;6.314;2023-07-29T13:39:16;18.30;99.90
57829;DHT22;43657;52.698;6.314;2023-07-29T13:41:41;18.20;99.90
57829;DHT22;43657;52.698;6.314;2023-07-29T13:44:07;18.20;99.90
57829;DHT22;43657;52.698;6.314;2023-07-29T13:46:33;18.30;99.90
57829;DHT22;43657;52.698;6.314;2023-07-29T13:48:58;18.50;99.90
57829;DHT22;43657;52.698;6.314;2023-07-29T13:51:24;19.00;99.90
57829;DHT22;43657;52.698;6.314;2023-07-29T13:53:50;19.60;99.90
57829;DHT22;43657;52.698;6.314;2023-07-29T13:56:15;20.40;99.90
57829;DHT22;43657;52.698;6.314;2023-07-29T13:58:41;21.10;99.90
57829;DHT22;43657;52.698;6.314;2023-07-29T14:01:06;21.60;99.90
57829;DHT22;43657;52.698;6.314;2023-07-29T14:03:32;21.80;99.90
57829;DHT22;43657;52.698;6.314;2023-07-29T14:05:57;21.60;99.90
57829;DHT22;43657;52.698;6.314;2023-07-29T14:08:23;21.30;99.90
57829;DHT22;43657;52.698;6.314;2023-07-29T14:10:49;20.90;99.90
57829;DHT22;43657;52.698;6.314;2023-07-29T14:13:15;20.60;99.90
57829;DHT22;43657;52.698;6.314;2023-07-29T14:15:41;20.40;99.90
57829;DHT22;43657;52.698;6.314;2023-07-29T14:18:07;20.30;99.90
57829;DHT22;43657;52.698;6.314;2023-07-29T14:20:32;20.10;99.90
57829;DHT22;43657;52.698;6.314;2023-07-29T14:22:58;20.00;99.90
57829;DHT22;43657;52.698;6.314;2023-07-29T14:25:24;19.90;99.90
57829;DHT22;43657;52.698;6.314;2023-07-29T14:27:50;19.70;99.90
57829;DHT22;43657;52.698;6.314;2023-07-29T14:30:16;19.40;99.90
57829;DHT22;43657;52.698;6.314;2023-07-29T14:32:41;19.30;99.90
57829;DHT22;43657;52.698;6.314;2023-07-29T14:35:07;19.20;99.90
57829;DHT22;43657;52.698;6.314;2023-07-29T14:37:34;19.10;99.90
57829;DHT22;43657;52.698;6.314;2023-07-29T14:40:00;19.40;99.90
57829;DHT22;43657;52.698;6.314;2023-07-29T14:42:27;19.60;99.90
57829;DHT22;43657;52.698;6.314;2023-07-29T14:44:53;19.80;99.90
57829;DHT22;43657;52.698;6.314;2023-07-29T14:47:19;19.90;99.90
57829;DHT22;43657;52.698;6.314;2023-07-29T14:49:45;20.10;99.90
57829;DHT22;43657;52.698;6.314;2023-07-29T14:52:10;20.60;99.90
57829;DHT22;43657;52.698;6.314;2023-07-29T14:54:36;21.10;99.90
57829;DHT22;43657;52.698;6.314;2023-07-29T14:57:02;21.30;99.90
57829;DHT22;43657;52.698;6.314;2023-07-29T14:59:28;21.50;99.90
57829;DHT22;43657;52.698;6.314;2023-07-29T15:01:53;21.60;99.90
57829;DHT22;43657;52.698;6.314;2023-07-29T15:04:19;21.60;99.90
57829;DHT22;43657;52.698;6.314;2023-07-29T15:06:45;21.40;99.90
57829;DHT22;43657;52.698;6.314;2023-07-29T15:09:11;21.20;99.90
57829;DHT22;43657;52.698;6.314;2023-07-29T15:11:36;21.10;99.90
57829;DHT22;43657;52.698;6.314;2023-07-29T15:14:02;20.90;99.90
57829;DHT22;43657;52.698;6.314;2023-07-29T15:16:29;20.90;99.90
57829;DHT22;43657;52.698;6.314;2023-07-29T15:18:55;20.70;99.90
57829;DHT22;43657;52.698;6.314;2023-07-29T15:21:21;20.60;99.90
57829;DHT22;43657;52.698;6.314;2023-07-29T15:23:46;20.50;99.90
57829;DHT22;43657;52.698;6.314;2023-07-29T15:26:12;20.60;99.90
57829;DHT22;43657;52.698;6.314;2023-07-29T15:28:38;20.50;99.90
57829;DHT22;43657;52.698;6.314;2023-07-29T15:31:04;20.40;99.90
57829;DHT22;43657;52.698;6.314;2023-07-29T15:33:29;20.40;99.90
57829;DHT22;43657;52.698;6.314;2023-07-29T15:35:55;20.20;99.90
57829;DHT22;43657;52.698;6.314;2023-07-29T15:38:20;20.00;99.90
57829;DHT22;43657;52.698;6.314;2023-07-29T15:40:47;20.00;99.90
57829;DHT22;43657;52.698;6.314;2023-07-29T15:43:14;19.90;99.90
57829;DHT22;43657;52.698;6.314;2023-07-29T15:45:40;19.80;99.90